Alder, Montana
Current Conditions -  °F | °C
As of 10:53 PM on Sunday 23 Nov 2014 (Local Time) from KDLN Reporting Station
Clear Clear  
Wind Chill: 16°   Ceiling: Unl
Heat Index: 26°   Visibility: 10mi
Dew Point: 23°   Wind: 10mph
Humidity: 88%   Direction: 210°SSW
Pressure: 29.97"   Gusts: NA
Location:  45.32°N, 112.11°W
Report Text: KDLN 240553Z AUTO 21009KT 10SM CLR M03/M05 A2997 RMK AO2 SNB0457E08 SLP171 P0000 60000 T10331050 10017 21033 51003
Loading
Personal Weather Stations






























Interactive Weather Map New forecast layout! Learn more

10-Day Weather Forecast

Advertisements
Track Severe Weather on mobile